Hawaii House
e-mail

Tradewinds Plaza unit #901, Waikiki condo

Sold · 1 baths · 481 sqft · Sold 09/05/2014 $199,000 $224,900

Great opportunity to own in the Heart of Waikiki! Be where the action is in this spacious studio. Great for first time homeowner who loves the nightlife. Call and go!
Details
  • Condo buildingTradewinds Plaza
  • Year Built1979
  • Original list price$224,900
  • Sold price$199,000
  • Days on market74
  • Price per sqft$414/sqft
  • Baths1
  • Maintenance fees$417
  • Total Monthly fees$417
  • Address

    2572 Lemon Road unit #901, Honolulu, HI, 96815

  • Total area481 sqft
  • Interior area481 sqft
  • Floor Number9
  • Property typeHigh-Rise 7+ Stories
  • NeighborhoodWaikiki
  • Land area10019 sqft / 0.23 acres
  • City of OahuHonolulu
  • RegionHonolulu
  • IslandOahu
  • Land tenureFS - Fee Simple
  • Owner occupancy percentage22
  • ViewCity
Amenities & Features
  • FloorsOther
  • FurnishedNone
  • ConstructionConcrete
  • SecurityCard, Gated Community, Key, Keyed Elevator, Video
  • Property ConditionAverage
  • Management CompanyTouchstone
  • ParkingNone
  • AmenitiesCommunity Laundry, Resident Manager
  • Unit featuresSingle Level
  • InclusionsNone
Schools Nearby
  • Jefferson Elementary School324 Kapahulu Ave, Honolulu, HI 96815
  • Washington Middle School1633 S King St, Honolulu, HI 96826
  • Kaimuki High School2705 Kaimuki Ave, Honolulu, HI 96816
Neighborhood - Waikiki
  • Neighborhood average sales price*$481.15k
  • Neighborhood median sales price*$400k
  • Number or sales*606
  • Median sale price Tradewinds Plaza*$220k
Price history
Date Event Price $/sqft Source
2014-09-05 Sold $199,000 -32.08% from last sold price $413.72 Public Record
2014-07-31 In Escrow - still showing $224,900 $467.57 MLS 201412930
2014-06-25 New Listing $224,900 $467.57 MLS 201412930
2010-05-03 Expired $230,000 $478.17 MLS 1002821
2010-04-20 Price Decrease $230,000 -3.36% $478.17 MLS 1002821
2010-03-31 Price Decrease $238,000 -0.83% $494.80 MLS 1002821
2010-03-15 Price Decrease $240,000 -1.64% $498.96 MLS 1002821
2010-03-02 New Listing $244,000 $507.28 MLS 1002821
2010-03-01 Expired $244,000 $507.28 MLS 1000481
2010-02-19 Price Decrease $244,000 -0.41% $507.28 MLS 1000481
2010-01-12 New Listing $245,000 $509.36 MLS 1000481
2010-01-08 Expired $250,000 $519.75 MLS 2915536
2009-12-07 New Listing $250,000 $519.75 MLS 2915536
2009-12-04 Expired $260,000 $540.54 MLS 2914298
2009-11-02 New Listing $260,000 $540.54 MLS 2914298
2009-11-02 Expired $275,000 $571.73 MLS 2912658
2009-09-24 New Listing $275,000 $571.73 MLS 2912658
2009-09-24 Expired $276,000 $573.80 MLS 2909993
2009-09-21 Price Decrease $276,000 -13.48% $573.80 MLS 2909993
2009-07-23 New Listing $319,000 $663.20 MLS 2909993
2017-01-29 Rented $1,347 $2.80 MLS 2809552
2017-01-16 Price Decrease $1,347 -3.58% $2.80 MLS 2809552
2016-10-30 Price Increase $1,397 +3.71% $2.90 MLS 2809552
2016-10-25 Price Decrease $1,347 -2.95% $2.80 MLS 2809552
2016-10-14 Price Decrease $1,388 -0.64% $2.89 MLS 2809552
2016-10-01 Price Decrease $1,397 -2.78% $2.90 MLS 2809552
2016-09-28 Price Decrease $1,437 -0.69% $2.99 MLS 2809552
2016-08-22 Price Increase $1,447 +3.58% $3.01 MLS 2809552
2016-06-05 Price Increase $1,397 +7.71% $2.90 MLS 2809552
2016-06-05 Back On Market $1,297 $2.70 MLS 2809552
2015-05-04 Rented $1,297 $2.70 MLS 2809552
2015-04-18 Back On Market $1,297 $2.70 MLS 2809552
2015-03-29 Price Increase $1,297 +13.08% $2.70 MLS 2809552
2013-01-21 Rented $1,147 $2.38 MLS 2809552
2012-11-25 Price Increase $1,147 +9.55% $2.38 MLS 2809552
2012-11-25 Back On Market $1,047 $2.18 MLS 2809552
2011-09-30 Rented $1,047 $2.18 MLS 2809552
2011-09-05 Back On Market $1,047 $2.18 MLS 2809552
2011-07-25 Rented $1,047 $2.18 MLS 2809552
2011-05-28 Price Decrease $1,047 -25.05% $2.18 MLS 2809552
2011-05-28 Back On Market $1,397 $2.90 MLS 2809552
2010-02-09 Rented $1,397 $2.90 MLS 2809552
2009-11-28 Price Increase $1,397 +33.43% $2.90 MLS 2809552
2009-11-28 Price Increase $1,047 +5.02% $2.18 MLS 2809552
2009-10-21 Price Increase $997 +5.28% $2.07 MLS 2809552
2009-10-21 Back On Market $947 $1.97 MLS 2809552
2009-07-27 Rented $947 $1.97 MLS 2809552
2009-07-04 Price Increase $947 +5.57% $1.97 MLS 2809552
2009-06-14 Price Decrease $897 -10.03% $1.86 MLS 2809552
2009-05-31 Price Decrease $997 -4.78% $2.07 MLS 2809552
2009-05-16 Price Increase $1,047 +5.02% $2.18 MLS 2809552
2009-05-13 Price Decrease $997 -15.29% $2.07 MLS 2809552
2009-05-13 Back On Market $1,177 $2.45 MLS 2809552
2008-08-01 Rented $1,177 $2.45 MLS 2809552
2008-06-06 New Listing rental $1,177 $2.45 MLS 2809552
2008-04-28 Expired $330,000 $686.07 MLS 2721746
2008-04-04 Temporarily Withdrawn $330,000 $686.07 MLS 2721746
2007-12-27 New Listing $330,000 $686.07 MLS 2721746
2007-12-11 Expired $330,000 $686.07 MLS 2714908
2007-10-07 Price Decrease $330,000 -5.71% $686.07 MLS 2714908
2007-09-19 Price Decrease $350,000 -4.11% $727.65 MLS 2714908
2007-08-13 New Listing $330,000 $686.07 MLS 2714908
2006-05-08 Sold $293,000 $609.15 Public Record
2006-04-06 In Escrow - not showing $299,000 $621.62 MLS 2606181
2006-03-28 New Listing $299,000 $621.62 MLS 2606181
2006-03-13 Withdrawn $299,000 $621.62 MLS 2520870
2006-03-11 Back On Market $299,000 $621.62 MLS 2520870
2006-03-11 Temporarily Withdrawn $299,000 $621.62 MLS 2520870
2006-02-15 Price Decrease $299,000 -6.27% $621.62 MLS 2520870
2006-02-09 Price Increase $319,000 +3.24% $663.20 MLS 2520870
2006-01-24 Price Decrease $309,000 -2.83% $642.41 MLS 2520870
2006-01-05 Price Decrease $318,000 -3.05% $661.12 MLS 2520870
2005-12-07 Price Decrease $328,000 -0.23% $681.91 MLS 2520870
2005-12-03 New Listing $328,765 $683.50 MLS 2520870
Taxes
  • Current Property Taxes p/month$65
  • Property Tax Year2013
  • Assessed Improvement value$145,900
  • Assessed Land value$39,300
  • MLS #201412930
  • TMK1-2-6-027-020-0063
  • Land RecordedLand Court
  • ZoningX6 - Resor
  • Total Assessed value$185,200
Agent viewpoints   of 2572 Lemon Road unit #901, Honolulu, HI, 96815
Stunning views
Ocean views
Open floorplan
Needs Work
Street noise

We do not have an Agent Viewpoint for this listing yet.

As soon as we do, we post it here.

Request more info
or Call 808-394-9779
Hawaii House
Condo Sold $199,000 $224,900 2572 Lemon Road unit #901, Honolulu, HI, 96815 1 baths / 481 sqft Remove from Saved Save House